sensor_id;sensor_type;location;lat;lon;timestamp;pressure;altitude;pressure_sealevel;temperature;humidity
6853;BME280;3465;42.144;24.722;2022-12-05T00:00:53;144654.75;;;6.94;100.00
6853;BME280;3465;42.144;24.722;2022-12-05T00:03:19;144639.78;;;6.88;100.00
6853;BME280;3465;42.144;24.722;2022-12-05T00:05:45;144668.50;;;6.99;100.00
6853;BME280;3465;42.144;24.722;2022-12-05T00:08:10;144616.09;;;6.78;100.00
6853;BME280;3465;42.144;24.722;2022-12-05T00:10:36;144644.78;;;6.90;100.00
6853;BME280;3465;42.144;24.722;2022-12-05T00:13:02;144623.56;;;6.81;100.00
6853;BME280;3465;42.144;24.722;2022-12-05T00:15:28;144631.03;;;6.84;100.00
6853;BME280;3465;42.144;24.722;2022-12-05T00:17:53;144646.06;;;6.90;100.00
6853;BME280;3465;42.144;24.722;2022-12-05T00:20:18;144633.56;;;6.85;100.00
6853;BME280;3465;42.144;24.722;2022-12-05T00:22:45;144642.28;;;6.89;100.00
6853;BME280;3465;42.144;24.722;2022-12-05T00:25:10;144654.75;;;6.94;100.00
6853;BME280;3465;42.144;24.722;2022-12-05T00:27:35;144597.38;;;6.71;100.00
6853;BME280;3465;42.144;24.722;2022-12-05T00:30:01;144613.59;;;6.77;100.00
6853;BME280;3465;42.144;24.722;2022-12-05T00:32:28;144608.59;;;6.75;100.00
6853;BME280;3465;42.144;24.722;2022-12-05T00:34:53;144641.06;;;6.88;100.00
6853;BME280;3465;42.144;24.722;2022-12-05T00:37:19;144631.03;;;6.84;100.00
6853;BME280;3465;42.144;24.722;2022-12-05T00:39:44;144637.31;;;6.87;100.00
6853;BME280;3465;42.144;24.722;2022-12-05T00:42:10;144612.34;;;6.77;100.00
6853;BME280;3465;42.144;24.722;2022-12-05T00:44:35;144639.78;;;6.88;100.00
6853;BME280;3465;42.144;24.722;2022-12-05T00:47:01;144648.53;;;6.91;100.00
6853;BME280;3465;42.144;24.722;2022-12-05T00:49:27;144643.53;;;6.89;100.00
6853;BME280;3465;42.144;24.722;2022-12-05T00:51:52;144644.78;;;6.90;100.00
6853;BME280;3465;42.144;24.722;2022-12-05T00:54:18;144638.53;;;6.87;100.00
6853;BME280;3465;42.144;24.722;2022-12-05T00:56:44;144668.50;;;6.99;100.00
6853;BME280;3465;42.144;24.722;2022-12-05T00:59:17;144663.50;;;6.97;100.00
6853;BME280;3465;42.144;24.722;2022-12-05T01:01:45;144673.50;;;7.01;100.00
6853;BME280;3465;42.144;24.722;2022-12-05T01:04:13;144666.03;;;6.98;100.00
6853;BME280;3465;42.144;24.722;2022-12-05T01:06:39;144634.78;;;6.86;100.00
6853;BME280;3465;42.144;24.722;2022-12-05T01:09:06;144654.75;;;6.94;100.00
6853;BME280;3465;42.144;24.722;2022-12-05T01:11:31;144661.03;;;6.96;100.00
6853;BME280;3465;42.144;24.722;2022-12-05T01:13:57;144659.75;;;6.96;100.00
6853;BME280;3465;42.144;24.722;2022-12-05T01:16:31;144664.78;;;6.98;100.00
6853;BME280;3465;42.144;24.722;2022-12-05T01:18:58;144668.50;;;6.99;100.00
6853;BME280;3465;42.144;24.722;2022-12-05T01:21:24;144664.78;;;6.98;100.00
6853;BME280;3465;42.144;24.722;2022-12-05T01:23:50;144663.50;;;6.97;100.00
6853;BME280;3465;42.144;24.722;2022-12-05T01:26:17;144668.50;;;6.99;100.00
6853;BME280;3465;42.144;24.722;2022-12-05T01:28:43;144676.00;;;7.02;100.00
6853;BME280;3465;42.144;24.722;2022-12-05T01:31:16;144677.25;;;7.03;100.00
6853;BME280;3465;42.144;24.722;2022-12-05T01:33:42;144681.00;;;7.04;100.00
6853;BME280;3465;42.144;24.722;2022-12-05T01:36:10;144668.50;;;6.99;100.00
6853;BME280;3465;42.144;24.722;2022-12-05T01:38:39;144679.72;;;7.04;100.00
6853;BME280;3465;42.144;24.722;2022-12-05T01:41:08;144681.00;;;7.04;100.00
6853;BME280;3465;42.144;24.722;2022-12-05T01:44:04;144683.47;;;7.05;100.00
6853;BME280;3465;42.144;24.722;2022-12-05T01:46:32;144664.78;;;6.98;100.00
6853;BME280;3465;42.144;24.722;2022-12-05T01:49:24;144654.75;;;6.94;100.00
6853;BME280;3465;42.144;24.722;2022-12-05T01:51:50;144683.47;;;7.05;100.00
6853;BME280;3465;42.144;24.722;2022-12-05T01:54:18;144657.28;;;6.95;100.00
6853;BME280;3465;42.144;24.722;2022-12-05T01:56:48;144651.00;;;6.92;100.00
6853;BME280;3465;42.144;24.722;2022-12-05T01:59:15;144673.50;;;7.01;100.00
6853;BME280;3465;42.144;24.722;2022-12-05T02:01:42;144669.78;;;7.00;100.00
6853;BME280;3465;42.144;24.722;2022-12-05T02:04:08;144624.81;;;6.82;100.00
6853;BME280;3465;42.144;24.722;2022-12-05T02:06:34;144666.03;;;6.98;100.00
6853;BME280;3465;42.144;24.722;2022-12-05T02:08:59;144668.50;;;6.99;100.00
6853;BME280;3465;42.144;24.722;2022-12-05T02:11:28;144666.03;;;6.98;100.00
6853;BME280;3465;42.144;24.722;2022-12-05T02:30:09;144651.00;;;6.92;100.00
6853;BME280;3465;42.144;24.722;2022-12-05T02:38:03;144664.78;;;6.98;100.00
6853;BME280;3465;42.144;24.722;2022-12-05T02:43:17;144658.50;;;6.95;100.00
6853;BME280;3465;42.144;24.722;2022-12-05T02:45:50;144636.06;;;6.86;100.00
6853;BME280;3465;42.144;24.722;2022-12-05T02:48:19;144646.06;;;6.90;100.00
6853;BME280;3465;42.144;24.722;2022-12-05T02:50:46;144641.06;;;6.88;100.00
6853;BME280;3465;42.144;24.722;2022-12-05T02:53:15;144662.25;;;6.97;100.00
6853;BME280;3465;42.144;24.722;2022-12-05T02:55:42;144682.22;;;7.05;100.00
6853;BME280;3465;42.144;24.722;2022-12-05T02:58:20;144694.69;;;7.10;100.00
6853;BME280;3465;42.144;24.722;2022-12-05T03:00:55;144688.47;;;7.07;100.00
6853;BME280;3465;42.144;24.722;2022-12-05T03:03:22;144694.69;;;7.10;100.00
6853;BME280;3465;42.144;24.722;2022-12-05T03:08:45;144674.72;;;7.02;100.00
6853;BME280;3465;42.144;24.722;2022-12-05T03:11:13;144682.22;;;7.05;100.00
6853;BME280;3465;42.144;24.722;2022-12-05T03:13:59;144589.91;;;6.68;100.00
6853;BME280;3465;42.144;24.722;2022-12-05T03:19:01;144695.97;;;7.10;100.00
6853;BME280;3465;42.144;24.722;2022-12-05T03:21:59;144690.97;;;7.08;100.00
6853;BME280;3465;42.144;24.722;2022-12-05T03:24:25;144683.47;;;7.05;100.00
6853;BME280;3465;42.144;24.722;2022-12-05T03:29:56;144669.78;;;7.00;100.00
6853;BME280;3465;42.144;24.722;2022-12-05T03:37:30;144638.53;;;6.87;100.00
6853;BME280;3465;42.144;24.722;2022-12-05T03:40:09;144634.78;;;6.86;100.00
6853;BME280;3465;42.144;24.722;2022-12-05T03:42:39;144621.09;;;6.80;100.00
6853;BME280;3465;42.144;24.722;2022-12-05T03:45:16;144646.06;;;6.90;100.00
6853;BME280;3465;42.144;24.722;2022-12-05T03:47:50;144657.28;;;6.95;100.00
6853;BME280;3465;42.144;24.722;2022-12-05T03:50:25;144639.78;;;6.88;100.00
6853;BME280;3465;42.144;24.722;2022-12-05T03:53:04;144642.28;;;6.89;100.00
6853;BME280;3465;42.144;24.722;2022-12-05T03:55:34;144651.00;;;6.92;100.00
6853;BME280;3465;42.144;24.722;2022-12-05T03:58:24;144647.28;;;6.91;100.00
6853;BME280;3465;42.144;24.722;2022-12-05T04:00:52;144644.78;;;6.90;100.00
6853;BME280;3465;42.144;24.722;2022-12-05T04:03:33;144677.25;;;7.03;100.00
6853;BME280;3465;42.144;24.722;2022-12-05T04:06:08;144669.78;;;7.00;100.00
6853;BME280;3465;42.144;24.722;2022-12-05T04:08:40;144689.75;;;7.08;100.00
6853;BME280;3465;42.144;24.722;2022-12-05T04:11:13;144594.84;;;6.70;100.00
6853;BME280;3465;42.144;24.722;2022-12-05T04:13:43;144651.00;;;6.92;100.00
6853;BME280;3465;42.144;24.722;2022-12-05T04:16:15;144647.28;;;6.91;100.00
6853;BME280;3465;42.144;24.722;2022-12-05T04:21:53;144633.56;;;6.85;100.00
6853;BME280;3465;42.144;24.722;2022-12-05T04:24:22;144666.03;;;6.98;100.00
6853;BME280;3465;42.144;24.722;2022-12-05T04:27:28;144689.75;;;7.08;100.00
6853;BME280;3465;42.144;24.722;2022-12-05T04:32:39;144592.38;;;6.69;100.00
6853;BME280;3465;42.144;24.722;2022-12-05T04:35:14;144681.00;;;7.04;100.00
6853;BME280;3465;42.144;24.722;2022-12-05T04:37:45;144643.53;;;6.89;100.00
6853;BME280;3465;42.144;24.722;2022-12-05T04:40:18;144651.00;;;6.92;100.00
6853;BME280;3465;42.144;24.722;2022-12-05T04:42:46;144613.59;;;6.77;100.00
6853;BME280;3465;42.144;24.722;2022-12-05T04:45:16;144623.56;;;6.81;100.00
6853;BME280;3465;42.144;24.722;2022-12-05T04:47:47;144628.56;;;6.83;100.00
6853;BME280;3465;42.144;24.722;2022-12-05T04:50:15;144646.06;;;6.90;100.00
6853;BME280;3465;42.144;24.722;2022-12-05T04:52:45;144642.28;;;6.89;100.00
6853;BME280;3465;42.144;24.722;2022-12-05T04:55:14;144643.53;;;6.89;100.00
6853;BME280;3465;42.144;24.722;2022-12-05T04:57:53;144543.69;;;6.49;100.00
6853;BME280;3465;42.144;24.722;2022-12-05T05:00:20;144601.13;;;6.72;100.00
6853;BME280;3465;42.144;24.722;2022-12-05T05:03:07;144677.25;;;7.03;100.00
6853;BME280;3465;42.144;24.722;2022-12-05T05:05:37;144693.47;;;7.09;100.00
6853;BME280;3465;42.144;24.722;2022-12-05T05:08:03;144653.53;;;6.93;100.00
6853;BME280;3465;42.144;24.722;2022-12-05T05:10:43;144669.78;;;7.00;100.00
6853;BME280;3465;42.144;24.722;2022-12-05T05:13:09;144667.25;;;6.99;100.00
6853;BME280;3465;42.144;24.722;2022-12-05T05:15:34;144662.25;;;6.97;100.00
6853;BME280;3465;42.144;24.722;2022-12-05T05:18:00;144644.78;;;6.90;100.00
6853;BME280;3465;42.144;24.722;2022-12-05T05:20:25;144664.78;;;6.98;100.00
6853;BME280;3465;42.144;24.722;2022-12-05T05:22:56;144676.00;;;7.02;100.00
6853;BME280;3465;42.144;24.722;2022-12-05T05:25:22;144673.50;;;7.01;100.00
6853;BME280;3465;42.144;24.722;2022-12-05T05:27:49;144669.78;;;7.00;100.00
6853;BME280;3465;42.144;24.722;2022-12-05T05:30:16;144669.78;;;7.00;100.00
6853;BME280;3465;42.144;24.722;2022-12-05T05:32:41;144597.38;;;6.71;100.00
6853;BME280;3465;42.144;24.722;2022-12-05T05:35:07;144668.50;;;6.99;100.00
6853;BME280;3465;42.144;24.722;2022-12-05T05:37:32;144663.50;;;6.97;100.00
6853;BME280;3465;42.144;24.722;2022-12-05T05:39:58;144667.25;;;6.99;100.00
6853;BME280;3465;42.144;24.722;2022-12-05T05:42:23;144684.75;;;7.06;100.00
6853;BME280;3465;42.144;24.722;2022-12-05T05:44:48;144626.09;;;6.82;100.00
6853;BME280;3465;42.144;24.722;2022-12-05T05:47:14;144646.06;;;6.90;100.00
6853;BME280;3465;42.144;24.722;2022-12-05T05:49:39;144621.09;;;6.80;100.00
6853;BME280;3465;42.144;24.722;2022-12-05T05:52:05;144621.09;;;6.80;100.00
6853;BME280;3465;42.144;24.722;2022-12-05T05:54:30;144636.06;;;6.86;100.00
6853;BME280;3465;42.144;24.722;2022-12-05T05:56:55;144666.03;;;6.98;100.00
6853;BME280;3465;42.144;24.722;2022-12-05T05:59:21;144657.28;;;6.95;100.00
6853;BME280;3465;42.144;24.722;2022-12-05T06:01:46;144664.78;;;6.98;100.00
6853;BME280;3465;42.144;24.722;2022-12-05T06:04:11;144676.00;;;7.02;100.00
6853;BME280;3465;42.144;24.722;2022-12-05T06:06:37;144658.50;;;6.95;100.00
6853;BME280;3465;42.144;24.722;2022-12-05T06:09:05;144658.50;;;6.95;100.00
6853;BME280;3465;42.144;24.722;2022-12-05T06:11:30;144561.19;;;6.56;100.00
6853;BME280;3465;42.144;24.722;2022-12-05T06:13:58;144666.03;;;6.98;100.00
6853;BME280;3465;42.144;24.722;2022-12-05T06:16:27;144671.00;;;7.00;100.00
6853;BME280;3465;42.144;24.722;2022-12-05T06:18:53;144676.00;;;7.02;100.00
6853;BME280;3465;42.144;24.722;2022-12-05T06:21:19;144676.00;;;7.02;100.00
6853;BME280;3465;42.144;24.722;2022-12-05T06:23:45;144661.03;;;6.96;100.00
6853;BME280;3465;42.144;24.722;2022-12-05T06:26:13;144667.25;;;6.99;100.00
6853;BME280;3465;42.144;24.722;2022-12-05T06:28:39;144674.72;;;7.02;100.00
6853;BME280;3465;42.144;24.722;2022-12-05T06:31:09;144644.78;;;6.90;100.00
6853;BME280;3465;42.144;24.722;2022-12-05T06:33:35;144698.44;;;7.11;100.00
6853;BME280;3465;42.144;24.722;2022-12-05T06:36:02;144700.97;;;7.12;100.00
6853;BME280;3465;42.144;24.722;2022-12-05T06:38:28;144673.50;;;7.01;100.00
6853;BME280;3465;42.144;24.722;2022-12-05T06:40:54;144698.44;;;7.11;100.00
6853;BME280;3465;42.144;24.722;2022-12-05T06:43:19;144714.69;;;7.18;100.00
6853;BME280;3465;42.144;24.722;2022-12-05T06:45:44;144712.19;;;7.17;100.00
6853;BME280;3465;42.144;24.722;2022-12-05T06:48:10;144720.94;;;7.20;100.00
6853;BME280;3465;42.144;24.722;2022-12-05T06:50:35;144738.41;;;7.27;100.00
6853;BME280;3465;42.144;24.722;2022-12-05T06:53:01;144749.69;;;7.32;100.00
6853;BME280;3465;42.144;24.722;2022-12-05T06:55:26;144752.16;;;7.33;100.00
6853;BME280;3465;42.144;24.722;2022-12-05T06:57:51;144798.34;;;7.52;100.00
6853;BME280;3465;42.144;24.722;2022-12-05T07:00:17;144808.34;;;7.56;100.00
6853;BME280;3465;42.144;24.722;2022-12-05T07:03:00;144819.59;;;7.60;100.00
6853;BME280;3465;42.144;24.722;2022-12-05T07:05:26;144819.59;;;7.60;100.00
6853;BME280;3465;42.144;24.722;2022-12-05T07:07:51;144860.81;;;7.77;100.00
6853;BME280;3465;42.144;24.722;2022-12-05T07:10:17;144889.56;;;7.88;100.00
6853;BME280;3465;42.144;24.722;2022-12-05T07:12:42;144860.81;;;7.77;100.00
6853;BME280;3465;42.144;24.722;2022-12-05T07:15:08;144904.53;;;7.94;100.00
6853;BME280;3465;42.144;24.722;2022-12-05T07:17:36;144913.28;;;7.98;100.00
6853;BME280;3465;42.144;24.722;2022-12-05T07:20:04;144932.03;;;8.05;100.00
6853;BME280;3465;42.144;24.722;2022-12-05T07:22:30;144958.25;;;8.16;100.00
6853;BME280;3465;42.144;24.722;2022-12-05T07:24:55;144984.56;;;8.26;100.00
6853;BME280;3465;42.144;24.722;2022-12-05T07:27:20;144965.78;;;8.19;100.00
6853;BME280;3465;42.144;24.722;2022-12-05T07:29:46;145018.28;;;8.40;100.00
6853;BME280;3465;42.144;24.722;2022-12-05T07:32:11;145023.28;;;8.42;100.00
6853;BME280;3465;42.144;24.722;2022-12-05T07:34:37;144997.06;;;8.31;100.00
6853;BME280;3465;42.144;24.722;2022-12-05T07:37:03;145010.78;;;8.37;100.00
6853;BME280;3465;42.144;24.722;2022-12-05T07:39:28;144982.03;;;8.25;100.00
6853;BME280;3465;42.144;24.722;2022-12-05T07:41:54;144968.25;;;8.20;100.00
6853;BME280;3465;42.144;24.722;2022-12-05T07:44:20;144995.78;;;8.31;100.00
6853;BME280;3465;42.144;24.722;2022-12-05T07:46:45;145005.81;;;8.35;100.00
6853;BME280;3465;42.144;24.722;2022-12-05T07:49:10;145023.28;;;8.42;100.00
6853;BME280;3465;42.144;24.722;2022-12-05T07:51:36;144988.31;;;8.28;100.00
6853;BME280;3465;42.144;24.722;2022-12-05T07:54:02;144994.53;;;8.30;100.00
6853;BME280;3465;42.144;24.722;2022-12-05T07:56:27;145024.53;;;8.42;100.00
6853;BME280;3465;42.144;24.722;2022-12-05T07:58:53;145040.81;;;8.49;100.00
6853;BME280;3465;42.144;24.722;2022-12-05T08:01:21;145050.78;;;8.53;100.00
6853;BME280;3465;42.144;24.722;2022-12-05T08:03:48;145090.78;;;8.69;100.00
6853;BME280;3465;42.144;24.722;2022-12-05T08:06:15;145109.56;;;8.77;100.00
6853;BME280;3465;42.144;24.722;2022-12-05T08:08:42;145087.03;;;8.67;100.00
6853;BME280;3465;42.144;24.722;2022-12-05T08:11:11;145118.28;;;8.80;100.00
6853;BME280;3465;42.144;24.722;2022-12-05T08:13:37;145129.56;;;8.85;100.00
6853;BME280;3465;42.144;24.722;2022-12-05T08:16:04;145122.03;;;8.82;100.00
6853;BME280;3465;42.144;24.722;2022-12-05T08:18:31;145083.28;;;8.66;100.00
6853;BME280;3465;42.144;24.722;2022-12-05T08:21:17;145099.53;;;8.73;100.00
6853;BME280;3465;42.144;24.722;2022-12-05T08:23:44;145067.03;;;8.59;100.00
6853;BME280;3465;42.144;24.722;2022-12-05T08:26:17;145065.81;;;8.59;100.00
6853;BME280;3465;42.144;24.722;2022-12-05T08:28:45;145048.28;;;8.52;100.00
6853;BME280;3465;42.144;24.722;2022-12-05T08:31:16;145068.28;;;8.60;100.00
6853;BME280;3465;42.144;24.722;2022-12-05T08:33:42;145045.81;;;8.51;100.00
6853;BME280;3465;42.144;24.722;2022-12-05T08:36:11;145063.28;;;8.58;100.00
6853;BME280;3465;42.144;24.722;2022-12-05T08:38:38;145028.28;;;8.44;100.00
6853;BME280;3465;42.144;24.722;2022-12-05T08:41:06;145029.56;;;8.44;100.00
6853;BME280;3465;42.144;24.722;2022-12-05T08:43:32;145048.28;;;8.52;100.00
6853;BME280;3465;42.144;24.722;2022-12-05T08:45:58;145003.28;;;8.34;100.00
6853;BME280;3465;42.144;24.722;2022-12-05T08:48:25;145033.31;;;8.46;100.00
6853;BME280;3465;42.144;24.722;2022-12-05T08:50:51;145005.81;;;8.35;100.00
6853;BME280;3465;42.144;24.722;2022-12-05T08:53:16;145025.81;;;8.43;100.00
6853;BME280;3465;42.144;24.722;2022-12-05T08:55:42;145068.28;;;8.60;100.00
6853;BME280;3465;42.144;24.722;2022-12-05T08:58:07;145094.53;;;8.70;100.00
6853;BME280;3465;42.144;24.722;2022-12-05T09:00:33;145067.03;;;8.59;100.00
6853;BME280;3465;42.144;24.722;2022-12-05T09:02:59;145060.81;;;8.57;100.00
6853;BME280;3465;42.144;24.722;2022-12-05T09:05:25;145040.81;;;8.49;100.00
6853;BME280;3465;42.144;24.722;2022-12-05T09:07:50;144993.31;;;8.30;100.00
6853;BME280;3465;42.144;24.722;2022-12-05T09:10:16;145000.81;;;8.33;100.00
6853;BME280;3465;42.144;24.722;2022-12-05T09:12:41;145020.81;;;8.41;100.00
6853;BME280;3465;42.144;24.722;2022-12-05T09:15:11;145042.00;;;8.49;100.00
6853;BME280;3465;42.144;24.722;2022-12-05T09:17:37;145024.53;;;8.42;100.00
6853;BME280;3465;42.144;24.722;2022-12-05T09:20:04;145043.28;;;8.50;100.00
6853;BME280;3465;42.144;24.722;2022-12-05T09:22:30;145025.81;;;8.43;100.00
6853;BME280;3465;42.144;24.722;2022-12-05T09:24:55;145019.53;;;8.40;100.00
6853;BME280;3465;42.144;24.722;2022-12-05T09:27:20;145022.03;;;8.41;100.00
6853;BME280;3465;42.144;24.722;2022-12-05T09:29:46;145063.28;;;8.58;100.00
6853;BME280;3465;42.144;24.722;2022-12-05T09:32:11;145070.78;;;8.61;100.00
6853;BME280;3465;42.144;24.722;2022-12-05T09:34:37;145050.78;;;8.53;100.00
6853;BME280;3465;42.144;24.722;2022-12-05T09:37:06;144968.25;;;8.20;100.00
6853;BME280;3465;42.144;24.722;2022-12-05T09:39:33;145049.56;;;8.52;100.00
6853;BME280;3465;42.144;24.722;2022-12-05T09:45:02;145104.56;;;8.75;100.00
6853;BME280;3465;42.144;24.722;2022-12-05T09:47:40;145120.81;;;8.81;100.00
6853;BME280;3465;42.144;24.722;2022-12-05T09:52:54;145143.28;;;8.90;100.00
6853;BME280;3465;42.144;24.722;2022-12-05T09:55:22;145128.31;;;8.84;100.00
6853;BME280;3465;42.144;24.722;2022-12-05T09:57:55;145102.03;;;8.73;100.00
6853;BME280;3465;42.144;24.722;2022-12-05T10:00:21;145085.81;;;8.67;100.00
6853;BME280;3465;42.144;24.722;2022-12-05T10:05:36;145088.31;;;8.68;100.00
6853;BME280;3465;42.144;24.722;2022-12-05T10:08:25;145112.06;;;8.78;100.00
6853;BME280;3465;42.144;24.722;2022-12-05T10:15:58;145098.28;;;8.72;100.00
6853;BME280;3465;42.144;24.722;2022-12-05T10:18:44;145125.81;;;8.83;100.00
6853;BME280;3465;42.144;24.722;2022-12-05T10:21:20;145124.56;;;8.83;100.00
6853;BME280;3465;42.144;24.722;2022-12-05T10:26:45;145068.28;;;8.60;100.00
6853;BME280;3465;42.144;24.722;2022-12-05T10:29:24;145225.88;;;9.23;100.00
6853;BME280;3465;42.144;24.722;2022-12-05T10:32:09;145268.38;;;9.40;100.00
6853;BME280;3465;42.144;24.722;2022-12-05T10:34:42;145260.88;;;9.37;100.00
6853;BME280;3465;42.144;24.722;2022-12-05T10:39:40;145382.22;;;9.86;100.00
6853;BME280;3465;42.144;24.722;2022-12-05T10:42:12;145411.00;;;9.97;100.00
6853;BME280;3465;42.144;24.722;2022-12-05T10:44:39;145373.50;;;9.82;100.00
6853;BME280;3465;42.144;24.722;2022-12-05T10:47:05;145354.69;;;9.75;100.00
6853;BME280;3465;42.144;24.722;2022-12-05T10:49:31;145344.72;;;9.71;100.00
6853;BME280;3465;42.144;24.722;2022-12-05T10:51:57;145408.53;;;9.96;100.00
6853;BME280;3465;42.144;24.722;2022-12-05T10:54:25;145448.63;;;10.13;100.00
6853;BME280;3465;42.144;24.722;2022-12-05T10:56:53;145474.91;;;10.23;100.00
6853;BME280;3465;42.144;24.722;2022-12-05T10:59:21;145496.19;;;10.32;100.00
6853;BME280;3465;42.144;24.722;2022-12-05T11:01:55;145471.16;;;10.22;100.00
6853;BME280;3465;42.144;24.722;2022-12-05T11:04:41;145481.19;;;10.26;100.00
6853;BME280;3465;42.144;24.722;2022-12-05T11:07:30;145506.25;;;10.36;100.00
6853;BME280;3465;42.144;24.722;2022-12-05T11:09:58;145531.25;;;10.46;100.00
6853;BME280;3465;42.144;24.722;2022-12-05T11:12:37;145538.75;;;10.49;100.00
6853;BME280;3465;42.144;24.722;2022-12-05T11:17:38;145518.72;;;10.41;100.00
6853;BME280;3465;42.144;24.722;2022-12-05T11:22:43;145543.78;;;10.51;100.00
6853;BME280;3465;42.144;24.722;2022-12-05T11:25:41;145543.78;;;10.51;100.00
6853;BME280;3465;42.144;24.722;2022-12-05T11:28:34;145492.44;;;10.30;100.00
6853;BME280;3465;42.144;24.722;2022-12-05T11:33:29;145461.16;;;10.18;100.00
6853;BME280;3465;42.144;24.722;2022-12-05T11:36:02;145474.91;;;10.23;100.00
6853;BME280;3465;42.144;24.722;2022-12-05T11:38:29;145446.16;;;10.12;100.00
6853;BME280;3465;42.144;24.722;2022-12-05T11:57:32;145375.97;;;9.83;100.00
6853;BME280;3465;42.144;24.722;2022-12-05T12:00:20;145389.78;;;9.89;100.00
6853;BME280;3465;42.144;24.722;2022-12-05T12:09:06;145370.97;;;9.81;100.00
6853;BME280;3465;42.144;24.722;2022-12-05T12:11:33;145342.16;;;9.70;100.00
6853;BME280;3465;42.144;24.722;2022-12-05T12:22:42;145318.41;;;9.60;100.00
6853;BME280;3465;42.144;24.722;2022-12-05T12:31:39;145342.16;;;9.70;100.00
6853;BME280;3465;42.144;24.722;2022-12-05T12:33:45;145364.72;;;9.79;100.00
6853;BME280;3465;42.144;24.722;2022-12-05T12:36:18;145362.19;;;9.78;100.00
6853;BME280;3465;42.144;24.722;2022-12-05T12:44:20;145383.50;;;9.86;100.00
6853;BME280;3465;42.144;24.722;2022-12-05T12:51:51;145426.06;;;10.03;100.00
6853;BME280;3465;42.144;24.722;2022-12-05T12:54:37;145452.38;;;10.14;100.00
6853;BME280;3465;42.144;24.722;2022-12-05T13:03:12;145448.63;;;10.13;100.00
6853;BME280;3465;42.144;24.722;2022-12-05T13:05:50;145434.78;;;10.07;100.00
6853;BME280;3465;42.144;24.722;2022-12-05T13:08:39;145394.75;;;9.91;100.00
6853;BME280;3465;42.144;24.722;2022-12-05T13:11:11;145414.75;;;9.99;100.00
6853;BME280;3465;42.144;24.722;2022-12-05T13:13:58;145389.78;;;9.89;100.00
6853;BME280;3465;42.144;24.722;2022-12-05T13:16:34;145388.50;;;9.88;100.00
6853;BME280;3465;42.144;24.722;2022-12-05T13:19:05;145383.50;;;9.86;100.00
6853;BME280;3465;42.144;24.722;2022-12-05T13:21:31;145384.75;;;9.87;100.00
6853;BME280;3465;42.144;24.722;2022-12-05T13:23:58;145408.53;;;9.96;100.00
6853;BME280;3465;42.144;24.722;2022-12-05T13:26:28;145419.78;;;10.01;100.00
6853;BME280;3465;42.144;24.722;2022-12-05T13:28:58;145413.56;;;9.98;100.00
6853;BME280;3465;42.144;24.722;2022-12-05T13:31:37;145403.50;;;9.94;100.00
6853;BME280;3465;42.144;24.722;2022-12-05T13:34:03;145375.97;;;9.83;100.00
6853;BME280;3465;42.144;24.722;2022-12-05T13:36:37;145352.22;;;9.74;100.00
6853;BME280;3465;42.144;24.722;2022-12-05T13:39:22;145323.41;;;9.62;100.00
6853;BME280;3465;42.144;24.722;2022-12-05T13:42:22;145330.91;;;9.65;100.00
6853;BME280;3465;42.144;24.722;2022-12-05T13:45:09;145352.22;;;9.74;100.00
6853;BME280;3465;42.144;24.722;2022-12-05T13:50:20;145360.97;;;9.77;100.00
6853;BME280;3465;42.144;24.722;2022-12-05T13:52:55;145352.22;;;9.74;100.00
6853;BME280;3465;42.144;24.722;2022-12-05T13:55:37;145343.44;;;9.70;100.00
6853;BME280;3465;42.144;24.722;2022-12-05T14:00:43;145340.97;;;9.69;100.00
6853;BME280;3465;42.144;24.722;2022-12-05T14:05:59;145304.66;;;9.55;100.00
6853;BME280;3465;42.144;24.722;2022-12-05T14:15:48;145224.59;;;9.23;100.00
6853;BME280;3465;42.144;24.722;2022-12-05T14:18:27;145222.06;;;9.22;100.00
6853;BME280;3465;42.144;24.722;2022-12-05T14:24:21;145207.06;;;9.16;100.00
6853;BME280;3465;42.144;24.722;2022-12-05T14:29:38;145198.31;;;9.12;100.00
6853;BME280;3465;42.144;24.722;2022-12-05T14:32:28;145194.56;;;9.11;100.00
6853;BME280;3465;42.144;24.722;2022-12-05T14:37:33;145179.56;;;9.05;100.00
6853;BME280;3465;42.144;24.722;2022-12-05T14:40:17;145165.84;;;8.99;100.00
6853;BME280;3465;42.144;24.722;2022-12-05T14:43:01;145164.56;;;8.99;100.00
6853;BME280;3465;42.144;24.722;2022-12-05T14:47:57;145155.81;;;8.95;100.00
6853;BME280;3465;42.144;24.722;2022-12-05T14:50:33;145157.06;;;8.96;100.00
6853;BME280;3465;42.144;24.722;2022-12-05T14:53:32;145158.28;;;8.96;100.00
6853;BME280;3465;42.144;24.722;2022-12-05T14:58:57;145123.28;;;8.82;100.00
6853;BME280;3465;42.144;24.722;2022-12-05T15:01:28;145135.81;;;8.87;100.00
6853;BME280;3465;42.144;24.722;2022-12-05T15:04:04;145145.84;;;8.91;100.00
6853;BME280;3465;42.144;24.722;2022-12-05T15:06:59;145119.53;;;8.81;100.00
6853;BME280;3465;42.144;24.722;2022-12-05T15:09:49;145133.31;;;8.86;100.00
6853;BME280;3465;42.144;24.722;2022-12-05T15:12:25;145130.78;;;8.85;100.00
6853;BME280;3465;42.144;24.722;2022-12-05T15:15:14;145115.78;;;8.79;100.00
6853;BME280;3465;42.144;24.722;2022-12-05T15:23:41;145082.03;;;8.65;100.00
6853;BME280;3465;42.144;24.722;2022-12-05T15:31:30;145067.03;;;8.59;100.00
6853;BME280;3465;42.144;24.722;2022-12-05T15:34:00;145025.81;;;8.43;100.00
6853;BME280;3465;42.144;24.722;2022-12-05T15:36:33;145034.53;;;8.46;100.00
6853;BME280;3465;42.144;24.722;2022-12-05T15:39:16;145025.81;;;8.43;100.00
6853;BME280;3465;42.144;24.722;2022-12-05T15:41:44;144993.31;;;8.30;100.00
6853;BME280;3465;42.144;24.722;2022-12-05T15:44:10;145003.28;;;8.34;100.00
6853;BME280;3465;42.144;24.722;2022-12-05T15:46:36;144997.06;;;8.31;100.00
6853;BME280;3465;42.144;24.722;2022-12-05T15:49:15;144990.78;;;8.29;100.00
6853;BME280;3465;42.144;24.722;2022-12-05T15:51:42;144978.28;;;8.24;100.00
6853;BME280;3465;42.144;24.722;2022-12-05T15:54:24;144980.81;;;8.25;100.00
6853;BME280;3465;42.144;24.722;2022-12-05T15:57:14;144953.28;;;8.14;100.00
6853;BME280;3465;42.144;24.722;2022-12-05T15:59:55;144970.75;;;8.21;100.00
6853;BME280;3465;42.144;24.722;2022-12-05T16:05:04;144961.97;;;8.17;100.00